createdAt,value
2019-04-07T00:00:38.134Z,11.00
2019-04-07T00:03:12.879Z,11.20
2019-04-07T00:05:47.205Z,16.87
2019-04-07T00:08:21.670Z,14.87
2019-04-07T00:10:57.850Z,11.90
2019-04-07T00:13:50.361Z,13.13
2019-04-07T00:16:46.148Z,13.90
2019-04-07T00:19:20.808Z,13.23
2019-04-07T00:21:55.707Z,13.53
2019-04-07T00:24:29.601Z,12.50
2019-04-07T00:27:04.258Z,12.60
2019-04-07T00:29:39.338Z,13.33
2019-04-07T00:32:14.128Z,14.20
2019-04-07T00:34:48.165Z,12.47
2019-04-07T00:37:23.996Z,11.73
2019-04-07T00:39:57.730Z,12.03
2019-04-07T00:42:32.615Z,13.17
2019-04-07T00:45:08.676Z,12.60
2019-04-07T00:47:44.920Z,15.90
2019-04-07T00:50:18.632Z,13.57
2019-04-07T00:52:53.203Z,13.73
2019-04-07T00:55:28.603Z,13.20
2019-04-07T00:58:02.660Z,15.30
2019-04-07T01:00:36.617Z,12.97
2019-04-07T01:03:11.524Z,12.90
2019-04-07T01:05:48.673Z,28.60
2019-04-07T01:08:22.822Z,25.73
2019-04-07T01:10:57.295Z,13.30
2019-04-07T01:13:33.668Z,13.60
2019-04-07T01:16:09.757Z,14.90
2019-04-07T01:18:44.368Z,15.17
2019-04-07T01:21:20.295Z,15.57
2019-04-07T01:23:54.527Z,17.37
2019-04-07T01:26:29.215Z,15.70
2019-04-07T01:29:09.211Z,15.97
2019-04-07T01:31:44.233Z,18.57
2019-04-07T01:34:18.603Z,15.10
2019-04-07T01:36:52.231Z,18.37
2019-04-07T01:39:27.343Z,15.65
2019-04-07T01:42:01.927Z,13.70
2019-04-07T01:44:35.695Z,11.60
2019-04-07T01:47:11.320Z,11.50
2019-04-07T01:49:45.266Z,11.78
2019-04-07T01:52:19.600Z,13.03
2019-04-07T01:54:53.666Z,12.37
2019-04-07T01:57:28.983Z,12.20
2019-04-07T02:00:04.565Z,11.37
2019-04-07T02:02:39.178Z,12.80
2019-04-07T02:05:14.313Z,12.03
2019-04-07T02:07:48.963Z,11.00
2019-04-07T02:10:22.909Z,9.03
2019-04-07T02:12:56.779Z,11.63
2019-04-07T02:15:30.546Z,11.13
2019-04-07T02:18:04.175Z,11.20
2019-04-07T02:20:48.995Z,10.40
2019-04-07T02:23:22.801Z,11.10
2019-04-07T02:25:56.882Z,11.13
2019-04-07T02:28:30.891Z,11.70
2019-04-07T02:31:04.783Z,16.60
2019-04-07T02:33:39.763Z,11.40
2019-04-07T02:36:21.355Z,11.18
2019-04-07T02:38:50.162Z,10.17
2019-04-07T02:41:24.102Z,10.05
2019-04-07T02:43:57.866Z,9.63
2019-04-07T02:46:31.518Z,6.67
2019-04-07T02:49:05.929Z,6.83
2019-04-07T02:51:40.338Z,8.50
2019-04-07T02:54:14.076Z,8.60
2019-04-07T02:56:48.447Z,8.38
2019-04-07T02:59:23.095Z,9.50
2019-04-07T03:01:58.236Z,8.43
2019-04-07T03:04:33.822Z,8.27
2019-04-07T03:07:07.994Z,10.23
2019-04-07T03:09:42.211Z,9.60
2019-04-07T03:12:15.965Z,8.58
2019-04-07T03:14:50.804Z,8.05
2019-04-07T03:17:25.853Z,8.83
2019-04-07T03:20:00.688Z,8.53
2019-04-07T03:22:34.995Z,8.40
2019-04-07T03:25:15.383Z,8.68
2019-04-07T03:27:48.640Z,7.90
2019-04-07T03:30:25.188Z,8.10
2019-04-07T03:33:01.137Z,7.50
2019-04-07T03:35:37.706Z,7.90
2019-04-07T03:38:13.899Z,7.87
2019-04-07T03:40:49.636Z,7.23
2019-04-07T03:43:24.173Z,7.40
2019-04-07T03:45:59.069Z,7.83
2019-04-07T03:48:33.459Z,7.53
2019-04-07T03:51:08.962Z,7.40
2019-04-07T03:53:43.934Z,6.63
2019-04-07T03:56:20.133Z,6.20
2019-04-07T03:58:55.762Z,7.67
2019-04-07T04:01:31.515Z,6.10
2019-04-07T04:04:06.041Z,5.60
2019-04-07T04:06:40.772Z,4.70
2019-04-07T04:09:15.477Z,3.90
2019-04-07T04:11:53.582Z,4.43
2019-04-07T04:14:27.698Z,5.60
2019-04-07T04:17:02.229Z,4.97
2019-04-07T04:19:36.328Z,6.03
2019-04-07T04:22:10.545Z,4.43
2019-04-07T04:24:44.726Z,5.50
2019-04-07T04:27:18.641Z,5.83
2019-04-07T04:29:53.415Z,3.77
2019-04-07T04:32:28.738Z,3.33
2019-04-07T04:35:03.198Z,2.77
2019-04-07T04:37:44.370Z,2.80
2019-04-07T04:40:11.797Z,3.13
2019-04-07T04:43:04.835Z,3.50
2019-04-07T04:45:40.529Z,3.10
2019-04-07T04:48:15.515Z,2.80
2019-04-07T04:50:50.416Z,3.20
2019-04-07T04:53:25.656Z,2.83
2019-04-07T04:55:59.527Z,3.00
2019-04-07T04:58:33.617Z,3.27
2019-04-07T05:01:09.640Z,2.70
2019-04-07T05:03:43.487Z,2.60
2019-04-07T05:06:17.934Z,2.90
2019-04-07T05:08:54.875Z,2.70
2019-04-07T05:11:31.569Z,3.00
2019-04-07T05:14:05.924Z,4.27
2019-04-07T05:16:39.967Z,2.70
2019-04-07T05:19:14.425Z,3.90
2019-04-07T05:21:48.469Z,3.37
2019-04-07T05:24:22.483Z,3.07
2019-04-07T05:26:57.396Z,2.70
2019-04-07T05:29:31.220Z,2.83
2019-04-07T05:32:06.892Z,2.37
2019-04-07T05:34:41.173Z,2.60
2019-04-07T05:37:14.942Z,2.73
2019-04-07T05:39:48.799Z,3.83
2019-04-07T05:42:23.390Z,3.27
2019-04-07T05:44:58.571Z,3.70
2019-04-07T05:47:32.023Z,3.30
2019-04-07T05:50:06.380Z,3.03
2019-04-07T05:52:40.822Z,2.13
2019-04-07T05:55:15.194Z,3.00
2019-04-07T05:57:52.000Z,2.63
2019-04-07T06:00:25.996Z,2.37
2019-04-07T06:03:04.513Z,2.60
2019-04-07T06:05:38.598Z,2.80
2019-04-07T06:08:24.592Z,2.67
2019-04-07T06:10:50.007Z,2.80
2019-04-07T06:13:24.739Z,2.95
2019-04-07T06:16:00.470Z,2.53
2019-04-07T06:18:36.800Z,2.53
2019-04-07T06:21:14.134Z,2.83
2019-04-07T06:23:46.227Z,3.63
2019-04-07T06:26:20.929Z,2.50
2019-04-07T06:28:58.475Z,2.20
2019-04-07T06:31:33.023Z,2.10
2019-04-07T06:34:10.081Z,2.20
2019-04-07T06:36:41.551Z,2.90
2019-04-07T06:39:17.218Z,3.17
2019-04-07T06:41:50.565Z,2.75
2019-04-07T06:44:26.144Z,2.80
2019-04-07T06:47:03.481Z,2.80
2019-04-07T06:49:35.606Z,3.20
2019-04-07T06:52:09.477Z,2.97
2019-04-07T06:54:43.833Z,2.60
2019-04-07T06:57:18.472Z,2.50
2019-04-07T06:59:52.469Z,4.90
2019-04-07T07:02:27.016Z,3.40
2019-04-07T07:05:05.208Z,2.90
2019-04-07T07:07:38.901Z,3.40
2019-04-07T07:10:26.841Z,2.70
2019-04-07T07:13:00.069Z,2.50
2019-04-07T07:15:34.554Z,3.00
2019-04-07T07:18:08.945Z,2.77
2019-04-07T07:20:46.163Z,3.17
2019-04-07T07:23:20.876Z,2.67
2019-04-07T07:25:55.579Z,3.58
2019-04-07T07:28:29.973Z,3.37
2019-04-07T07:31:05.317Z,3.73
2019-04-07T07:33:42.445Z,2.70
2019-04-07T07:36:17.982Z,3.17
2019-04-07T07:38:59.088Z,2.40
2019-04-07T07:41:26.841Z,2.90
2019-04-07T07:44:03.604Z,2.83
2019-04-07T07:46:38.597Z,2.50
2019-04-07T07:49:13.613Z,2.57
2019-04-07T07:51:48.678Z,2.20
2019-04-07T07:54:22.969Z,2.00
2019-04-07T07:56:58.050Z,2.20
2019-04-07T07:59:37.844Z,2.13
2019-04-07T08:02:11.881Z,2.70
2019-04-07T08:04:49.920Z,2.80
2019-04-07T08:07:23.701Z,2.13
2019-04-07T08:09:58.035Z,3.23
2019-04-07T08:12:34.703Z,2.80
2019-04-07T08:15:09.829Z,2.80
2019-04-07T08:17:45.266Z,2.40
2019-04-07T08:20:19.942Z,2.53
2019-04-07T08:22:54.176Z,1.77
2019-04-07T08:25:29.165Z,2.00
2019-04-07T08:28:06.146Z,1.90
2019-04-07T08:30:43.969Z,2.20
2019-04-07T08:33:18.952Z,1.97
2019-04-07T08:35:56.057Z,1.90
2019-04-07T08:38:31.069Z,2.60
2019-04-07T08:41:08.187Z,2.80
2019-04-07T08:43:42.349Z,2.60
2019-04-07T08:46:18.802Z,2.67
2019-04-07T08:48:56.523Z,3.30
2019-04-07T08:51:32.367Z,4.42
2019-04-07T08:54:07.192Z,2.97
2019-04-07T08:56:42.239Z,3.10
2019-04-07T08:59:18.272Z,2.63
2019-04-07T09:01:54.324Z,2.80
2019-04-07T09:04:30.881Z,2.87
2019-04-07T09:07:05.982Z,2.90
2019-04-07T09:09:45.736Z,2.53
2019-04-07T09:12:19.315Z,2.50
2019-04-07T09:14:55.641Z,2.90
2019-04-07T09:17:39.910Z,2.60
2019-04-07T09:20:12.250Z,2.70
2019-04-07T09:22:47.522Z,2.40
2019-04-07T09:25:22.646Z,1.90
2019-04-07T09:27:58.314Z,3.50
2019-04-07T09:30:34.034Z,3.30
2019-04-07T09:33:09.618Z,3.22
2019-04-07T09:35:52.033Z,2.90
2019-04-07T09:38:30.448Z,3.80
2019-04-07T09:41:08.478Z,4.57
2019-04-07T09:43:51.778Z,4.30
2019-04-07T09:46:27.549Z,5.67
2019-04-07T09:49:03.378Z,4.70
2019-04-07T09:51:41.341Z,3.60
2019-04-07T09:54:17.629Z,4.00
2019-04-07T09:56:51.873Z,4.77
2019-04-07T09:59:26.570Z,5.20
2019-04-07T10:02:02.196Z,5.47
2019-04-07T10:04:38.648Z,5.10
2019-04-07T10:07:15.341Z,4.83
2019-04-07T10:10:03.637Z,4.47
2019-04-07T10:12:30.133Z,4.57
2019-04-07T10:15:05.410Z,3.20
2019-04-07T10:17:43.118Z,3.33
2019-04-07T10:20:23.148Z,2.80
2019-04-07T10:22:58.982Z,2.83
2019-04-07T10:25:36.403Z,3.67
2019-04-07T10:28:12.609Z,4.07
2019-04-07T10:30:48.385Z,3.70
2019-04-07T10:33:23.867Z,3.90
2019-04-07T10:35:59.030Z,3.77
2019-04-07T10:38:39.207Z,4.33
2019-04-07T10:41:14.063Z,4.80
2019-04-07T10:43:48.828Z,5.20
2019-04-07T10:46:23.555Z,4.87
2019-04-07T10:48:57.763Z,4.80
2019-04-07T10:51:36.455Z,4.60
2019-04-07T10:54:14.026Z,4.70
2019-04-07T10:56:49.789Z,5.60
2019-04-07T10:59:25.578Z,4.63
2019-04-07T11:02:01.307Z,5.03
2019-04-07T11:04:40.836Z,4.93
2019-04-07T11:07:17.498Z,4.80
2019-04-07T11:09:52.065Z,5.03
2019-04-07T11:12:27.567Z,5.03
2019-04-07T11:15:02.929Z,5.27
2019-04-07T11:17:38.312Z,6.73
2019-04-07T11:20:14.966Z,7.33
2019-04-07T11:22:50.131Z,7.50
2019-04-07T11:25:28.364Z,8.53
2019-04-07T11:28:11.121Z,8.13
2019-04-07T11:30:45.426Z,7.65
2019-04-07T11:33:20.857Z,8.10
2019-04-07T11:35:55.712Z,7.93
2019-04-07T11:38:35.262Z,7.70
2019-04-07T11:41:10.180Z,7.73
2019-04-07T11:43:46.868Z,8.25
2019-04-07T11:46:27.884Z,8.93
2019-04-07T11:49:04.990Z,8.13
2019-04-07T11:51:40.627Z,8.37
2019-04-07T11:54:16.400Z,8.27
2019-04-07T11:56:53.444Z,8.80
2019-04-07T11:59:29.928Z,9.83
2019-04-07T12:02:07.392Z,8.83
2019-04-07T12:04:43.629Z,9.63
2019-04-07T12:07:20.315Z,8.70
2019-04-07T12:09:55.191Z,8.60
2019-04-07T12:12:32.250Z,8.20
2019-04-07T12:15:09.461Z,9.73
2019-04-07T12:17:45.023Z,9.43
2019-04-07T12:20:29.914Z,9.87
2019-04-07T12:23:03.660Z,9.73
2019-04-07T12:25:40.251Z,9.87
2019-04-07T12:28:17.776Z,9.60
2019-04-07T12:30:52.828Z,9.50
2019-04-07T12:33:28.539Z,9.95
2019-04-07T12:36:11.773Z,10.00
2019-04-07T12:38:47.869Z,10.17
2019-04-07T12:41:23.410Z,9.93
2019-04-07T12:43:59.518Z,10.53
2019-04-07T12:46:37.671Z,10.13
2019-04-07T12:49:13.333Z,11.10
2019-04-07T12:51:53.057Z,10.98
2019-04-07T12:54:24.885Z,10.70
2019-04-07T12:57:05.339Z,10.87
2019-04-07T12:59:39.336Z,9.87
2019-04-07T13:02:17.909Z,8.97
2019-04-07T13:04:59.730Z,10.03
2019-04-07T13:07:48.423Z,10.40
2019-04-07T13:10:21.542Z,11.60
2019-04-07T13:12:59.333Z,11.75
2019-04-07T13:15:35.620Z,11.87
2019-04-07T13:18:16.426Z,11.23
2019-04-07T13:20:57.863Z,11.13
2019-04-07T13:23:34.733Z,12.10
2019-04-07T13:26:10.816Z,12.57
2019-04-07T13:28:47.892Z,12.13
2019-04-07T13:31:24.433Z,13.60
2019-04-07T13:34:01.718Z,11.87
2019-04-07T13:36:35.829Z,12.70
2019-04-07T13:39:13.966Z,11.93
2019-04-07T13:41:53.327Z,13.10
2019-04-07T13:44:28.244Z,12.85
2019-04-07T13:47:06.261Z,12.87
2019-04-07T13:49:39.982Z,12.37
2019-04-07T13:52:19.384Z,12.27
2019-04-07T13:54:52.589Z,12.37
2019-04-07T13:57:28.023Z,12.23
2019-04-07T14:00:04.072Z,12.90
2019-04-07T14:02:39.966Z,12.47
2019-04-07T14:05:17.939Z,12.00
2019-04-07T14:07:57.066Z,12.37
2019-04-07T14:10:36.500Z,12.80
2019-04-07T14:13:09.332Z,13.33
2019-04-07T14:15:44.326Z,12.17
2019-04-07T14:18:21.597Z,13.30
2019-04-07T14:20:57.788Z,12.60
2019-04-07T14:23:33.078Z,12.73
2019-04-07T14:26:10.273Z,12.10
2019-04-07T14:28:45.793Z,11.63
2019-04-07T14:31:20.771Z,12.23
2019-04-07T14:33:55.603Z,11.50
2019-04-07T14:36:30.149Z,11.10
2019-04-07T14:39:05.267Z,13.40
2019-04-07T14:41:41.312Z,11.40
2019-04-07T14:44:18.229Z,12.47
2019-04-07T14:46:52.414Z,12.30
2019-04-07T14:49:27.883Z,11.60
2019-04-07T14:52:02.557Z,11.17
2019-04-07T14:54:38.776Z,11.30
2019-04-07T14:57:15.528Z,11.10
2019-04-07T14:59:52.111Z,12.07
2019-04-07T15:02:26.360Z,12.40
2019-04-07T15:05:01.819Z,11.03
2019-04-07T15:07:36.642Z,10.82
2019-04-07T15:10:16.526Z,12.03
2019-04-07T15:12:50.205Z,10.65
2019-04-07T15:15:26.782Z,11.50
2019-04-07T15:18:01.310Z,11.67
2019-04-07T15:20:35.604Z,12.20
2019-04-07T15:23:11.060Z,11.50
2019-04-07T15:25:46.999Z,11.70
2019-04-07T15:28:21.553Z,12.47
2019-04-07T15:30:56.845Z,11.47
2019-04-07T15:33:38.535Z,11.73
2019-04-07T15:36:12.794Z,11.13
2019-04-07T15:38:47.532Z,11.67
2019-04-07T15:41:22.285Z,12.25
2019-04-07T15:43:57.265Z,11.03
2019-04-07T15:46:30.885Z,11.37
2019-04-07T15:49:07.632Z,11.70
2019-04-07T15:51:43.115Z,11.73
2019-04-07T15:54:20.158Z,11.50
2019-04-07T15:56:55.049Z,11.40
2019-04-07T15:59:30.345Z,11.70
2019-04-07T16:02:08.465Z,10.90
2019-04-07T16:04:41.871Z,10.27
2019-04-07T16:07:18.335Z,9.23
2019-04-07T16:09:56.588Z,10.17
2019-04-07T16:12:28.721Z,9.50
2019-04-07T16:15:02.463Z,9.90
2019-04-07T16:17:37.182Z,9.30
2019-04-07T16:20:22.163Z,10.07
2019-04-07T16:22:51.190Z,10.07
2019-04-07T16:25:27.628Z,9.40
2019-04-07T16:27:59.631Z,9.83
2019-04-07T16:30:40.649Z,10.43
2019-04-07T16:33:16.404Z,10.60
2019-04-07T16:35:55.635Z,10.13
2019-04-07T16:38:31.788Z,9.80
2019-04-07T16:41:06.444Z,9.23
2019-04-07T16:43:42.042Z,9.27
2019-04-07T16:46:22.440Z,9.30
2019-04-07T16:48:52.225Z,9.70
2019-04-07T16:51:27.718Z,9.67
2019-04-07T16:54:01.441Z,9.10
2019-04-07T16:56:35.347Z,9.13
2019-04-07T16:59:10.183Z,9.23
2019-04-07T17:01:45.587Z,9.60
2019-04-07T17:04:20.065Z,9.37
2019-04-07T17:07:01.650Z,9.28
2019-04-07T17:09:33.147Z,9.87
2019-04-07T17:12:09.344Z,9.80
2019-04-07T17:14:42.561Z,9.70
2019-04-07T17:17:20.324Z,9.47
2019-04-07T17:19:51.547Z,8.80
2019-04-07T17:22:25.444Z,8.53
2019-04-07T17:25:01.466Z,8.97
2019-04-07T17:27:35.212Z,8.37
2019-04-07T17:30:17.241Z,8.67
2019-04-07T17:32:52.059Z,9.18
2019-04-07T17:35:27.511Z,8.57
2019-04-07T17:38:05.177Z,9.07
2019-04-07T17:40:37.796Z,9.30
2019-04-07T17:43:11.850Z,8.90
2019-04-07T17:45:46.172Z,8.47
2019-04-07T17:48:21.371Z,8.93
2019-04-07T17:50:55.299Z,8.97
2019-04-07T17:53:29.634Z,9.30
2019-04-07T17:56:03.604Z,9.10
2019-04-07T17:58:39.431Z,8.60
2019-04-07T18:01:12.718Z,8.80
2019-04-07T18:03:47.318Z,9.07
2019-04-07T18:06:21.527Z,8.83
2019-04-07T18:09:05.992Z,9.27
2019-04-07T18:11:30.549Z,10.33
2019-04-07T18:14:05.744Z,10.33
2019-04-07T18:16:39.603Z,8.73
2019-04-07T18:19:14.085Z,8.33
2019-04-07T18:21:51.939Z,8.53
2019-04-07T18:24:22.708Z,9.47
2019-04-07T18:26:56.560Z,9.50
2019-04-07T18:29:31.891Z,8.60
2019-04-07T18:32:05.102Z,9.13
2019-04-07T18:34:39.690Z,8.93
2019-04-07T18:37:13.449Z,9.53
2019-04-07T18:39:52.351Z,8.47
2019-04-07T18:42:22.004Z,8.47
2019-04-07T18:44:55.586Z,9.40
2019-04-07T18:47:31.518Z,9.83
2019-04-07T18:50:07.594Z,8.67
2019-04-07T18:52:40.979Z,9.20
2019-04-07T18:55:14.851Z,9.27
2019-04-07T18:57:48.849Z,8.70
2019-04-07T19:00:22.654Z,8.87
2019-04-07T19:02:56.536Z,8.40
2019-04-07T19:05:33.394Z,8.07
2019-04-07T19:08:05.178Z,7.83
2019-04-07T19:10:38.951Z,8.27
2019-04-07T19:13:17.105Z,9.00
2019-04-07T19:15:47.775Z,8.87
2019-04-07T19:18:22.487Z,8.28
2019-04-07T19:20:56.108Z,8.98
2019-04-07T19:23:30.240Z,8.30
2019-04-07T19:26:04.237Z,8.40
2019-04-07T19:28:38.279Z,8.63
2019-04-07T19:31:16.246Z,9.13
2019-04-07T19:33:47.392Z,8.60
2019-04-07T19:36:23.664Z,8.73
2019-04-07T19:38:56.174Z,7.83
2019-04-07T19:41:32.220Z,8.30
2019-04-07T19:44:04.827Z,8.50
2019-04-07T19:46:38.583Z,8.50
2019-04-07T19:49:15.038Z,8.27
2019-04-07T19:51:48.262Z,7.30
2019-04-07T19:54:22.124Z,7.63
2019-04-07T19:56:55.572Z,8.00
2019-04-07T19:59:30.103Z,7.90
2019-04-07T20:02:03.771Z,7.77
2019-04-07T20:04:37.384Z,8.00
2019-04-07T20:07:10.924Z,7.17
2019-04-07T20:09:46.789Z,7.72
2019-04-07T20:12:20.743Z,8.83
2019-04-07T20:15:01.331Z,7.40
2019-04-07T20:17:29.918Z,8.13
2019-04-07T20:20:04.136Z,8.13
2019-04-07T20:22:38.086Z,8.20
2019-04-07T20:25:16.005Z,8.57
2019-04-07T20:27:47.006Z,8.23
2019-04-07T20:30:21.250Z,8.13
2019-04-07T20:32:56.751Z,7.83
2019-04-07T20:35:31.491Z,7.73
2019-04-07T20:38:06.187Z,7.60
2019-04-07T20:40:44.061Z,7.80
2019-04-07T20:43:15.346Z,7.70
2019-04-07T20:45:50.045Z,8.13
2019-04-07T20:48:23.739Z,8.03
2019-04-07T20:50:58.268Z,7.50
2019-04-07T20:53:33.689Z,8.10
2019-04-07T20:56:11.548Z,7.10
2019-04-07T20:58:48.729Z,7.17
2019-04-07T21:01:22.013Z,7.27
2019-04-07T21:03:53.064Z,7.20
2019-04-07T21:06:29.513Z,7.10
2019-04-07T21:09:02.757Z,7.10
2019-04-07T21:11:37.662Z,6.97
2019-04-07T21:14:11.394Z,7.17
2019-04-07T21:16:45.205Z,7.77
2019-04-07T21:19:18.792Z,7.93
2019-04-07T21:21:54.031Z,7.10
2019-04-07T21:24:27.664Z,7.97
2019-04-07T21:27:02.453Z,7.77
2019-04-07T21:29:38.580Z,7.87
2019-04-07T21:32:10.833Z,7.87
2019-04-07T21:34:44.992Z,8.03
2019-04-07T21:37:18.693Z,7.73
2019-04-07T21:39:53.874Z,7.13
2019-04-07T21:42:27.456Z,8.23
2019-04-07T21:45:04.273Z,8.23
2019-04-07T21:47:36.534Z,8.63
2019-04-07T21:50:15.882Z,8.23
2019-04-07T21:52:52.937Z,8.98
2019-04-07T21:55:25.347Z,8.00
2019-04-07T21:57:59.773Z,9.43
2019-04-07T22:00:34.859Z,9.20
2019-04-07T22:03:08.844Z,8.88
2019-04-07T22:05:43.272Z,8.67
2019-04-07T22:08:19.071Z,9.15
2019-04-07T22:10:53.731Z,9.10
2019-04-07T22:13:32.885Z,9.10
2019-04-07T22:16:04.256Z,9.47
2019-04-07T22:18:42.973Z,10.00
2019-04-07T22:21:19.169Z,10.43
2019-04-07T22:23:55.012Z,10.87
2019-04-07T22:26:28.448Z,9.77
2019-04-07T22:29:03.868Z,10.95
2019-04-07T22:31:38.730Z,9.47
2019-04-07T22:34:14.735Z,9.70
2019-04-07T22:36:47.966Z,9.93
2019-04-07T22:39:22.574Z,10.43
2019-04-07T22:41:57.091Z,10.53
2019-04-07T22:44:35.533Z,10.15
2019-04-07T22:47:12.016Z,10.50
2019-04-07T22:49:45.141Z,11.27
2019-04-07T22:52:18.937Z,11.43
2019-04-07T22:54:52.637Z,11.40
2019-04-07T22:57:27.123Z,13.03
2019-04-07T23:00:02.393Z,13.23
2019-04-07T23:02:36.127Z,12.63
2019-04-07T23:05:10.002Z,13.63
2019-04-07T23:07:43.811Z,13.72
2019-04-07T23:10:17.748Z,14.47
2019-04-07T23:12:51.326Z,14.87
2019-04-07T23:15:37.257Z,14.03
2019-04-07T23:17:59.906Z,13.13
2019-04-07T23:20:33.639Z,13.33
2019-04-07T23:23:07.098Z,14.00
2019-04-07T23:25:40.728Z,14.00
2019-04-07T23:28:14.570Z,13.95
2019-04-07T23:30:49.194Z,14.50
2019-04-07T23:33:22.976Z,13.97
2019-04-07T23:35:59.868Z,12.77
2019-04-07T23:38:34.599Z,14.33
2019-04-07T23:41:10.118Z,15.72
2019-04-07T23:43:43.936Z,14.45
2019-04-07T23:46:23.139Z,15.43
2019-04-07T23:48:53.905Z,13.37
2019-04-07T23:51:28.785Z,14.60
2019-04-07T23:54:19.493Z,14.77
2019-04-07T23:56:54.013Z,14.00
2019-04-07T23:59:29.107Z,13.13
